sensor_id;sensor_type;location;lat;lon;timestamp;pressure;altitude;pressure_sealevel;temperature;humidity
52185;BME280;38160;52.876;18.778;2023-02-18T05:47:55;99987.38;;;4.01;85.46
52185;BME280;38160;52.876;18.778;2023-02-18T05:50:31;99995.64;;;4.06;85.45
52185;BME280;38160;52.876;18.778;2023-02-18T05:53:06;99997.89;;;4.09;85.23
52185;BME280;38160;52.876;18.778;2023-02-18T05:55:40;100006.13;;;4.12;85.26
52185;BME280;38160;52.876;18.778;2023-02-18T05:58:14;100005.39;;;4.17;85.38
52185;BME280;38160;52.876;18.778;2023-02-18T06:00:48;100008.84;;;4.22;85.42
52185;BME280;38160;52.876;18.778;2023-02-18T06:03:22;100012.36;;;4.24;85.42
52185;BME280;38160;52.876;18.778;2023-02-18T06:05:56;100018.92;;;4.26;85.24
52185;BME280;38160;52.876;18.778;2023-02-18T06:08:29;100024.19;;;4.31;85.05
52185;BME280;38160;52.876;18.778;2023-02-18T06:11:03;100030.71;;;4.36;85.13
52185;BME280;38160;52.876;18.778;2023-02-18T06:13:37;100036.77;;;4.40;85.09
52185;BME280;38160;52.876;18.778;2023-02-18T06:16:10;100036.75;;;4.44;84.96
52185;BME280;38160;52.876;18.778;2023-02-18T06:18:44;100040.43;;;4.45;84.81
52185;BME280;38160;52.876;18.778;2023-02-18T06:21:18;100045.27;;;4.45;84.69
52185;BME280;38160;52.876;18.778;2023-02-18T06:23:52;100050.95;;;4.47;84.69
52185;BME280;38160;52.876;18.778;2023-02-18T06:26:26;100051.77;;;4.47;84.64
52185;BME280;38160;52.876;18.778;2023-02-18T06:29:03;100057.09;;;4.50;84.60
52185;BME280;38160;52.876;18.778;2023-02-18T06:31:36;100058.44;;;4.51;84.58
52185;BME280;38160;52.876;18.778;2023-02-18T06:34:10;100062.95;;;4.54;84.56
52185;BME280;38160;52.876;18.778;2023-02-18T06:36:43;100065.13;;;4.57;84.75
52185;BME280;38160;52.876;18.778;2023-02-18T06:39:17;100074.48;;;4.60;84.48
52185;BME280;38160;52.876;18.778;2023-02-18T06:41:51;100074.50;;;4.62;84.70
52185;BME280;38160;52.876;18.778;2023-02-18T06:44:24;100070.92;;;4.64;84.38
52185;BME280;38160;52.876;18.778;2023-02-18T06:46:58;100070.61;;;4.65;84.46
52185;BME280;38160;52.876;18.778;2023-02-18T06:49:32;100074.23;;;4.65;84.56
52185;BME280;38160;52.876;18.778;2023-02-18T06:52:05;100071.95;;;4.66;84.10
52185;BME280;38160;52.876;18.778;2023-02-18T07:00:17;100071.27;;;4.72;84.35
52185;BME280;38160;52.876;18.778;2023-02-18T07:02:55;100068.44;;;4.73;84.20
52185;BME280;38160;52.876;18.778;2023-02-18T07:05:29;100065.73;;;4.74;84.23
52185;BME280;38160;52.876;18.778;2023-02-18T07:08:03;100073.84;;;4.75;83.81
52185;BME280;38160;52.876;18.778;2023-02-18T07:10:37;100073.77;;;4.78;83.96
52185;BME280;38160;52.876;18.778;2023-02-18T07:13:11;100074.62;;;4.80;83.95
52185;BME280;38160;52.876;18.778;2023-02-18T07:16:03;100070.63;;;4.83;83.75
52185;BME280;38160;52.876;18.778;2023-02-18T07:18:36;100074.73;;;4.85;83.60
52185;BME280;38160;52.876;18.778;2023-02-18T07:21:10;100073.89;;;4.88;83.60
52185;BME280;38160;52.876;18.778;2023-02-18T07:23:44;100074.62;;;4.92;84.05
52185;BME280;38160;52.876;18.778;2023-02-18T07:26:22;100069.65;;;4.97;83.77
52185;BME280;38160;52.876;18.778;2023-02-18T07:28:55;100069.42;;;5.00;83.74
52185;BME280;38160;52.876;18.778;2023-02-18T07:31:28;100070.08;;;5.06;83.72
52185;BME280;38160;52.876;18.778;2023-02-18T07:34:02;100073.08;;;5.12;83.59
52185;BME280;38160;52.876;18.778;2023-02-18T07:36:36;100070.94;;;5.18;83.37
52185;BME280;38160;52.876;18.778;2023-02-18T07:39:10;100081.05;;;5.21;83.27
52185;BME280;38160;52.876;18.778;2023-02-18T07:41:43;100079.17;;;5.24;83.25
52185;BME280;38160;52.876;18.778;2023-02-18T07:44:20;100077.05;;;5.29;83.18
52185;BME280;38160;52.876;18.778;2023-02-18T07:46:54;100072.58;;;5.31;83.13
52185;BME280;38160;52.876;18.778;2023-02-18T07:49:28;100083.14;;;5.34;83.30
52185;BME280;38160;52.876;18.778;2023-02-18T07:52:02;100087.02;;;5.37;83.05
52185;BME280;38160;52.876;18.778;2023-02-18T07:54:38;100094.02;;;5.38;82.84
52185;BME280;38160;52.876;18.778;2023-02-18T07:57:17;100084.00;;;5.40;82.59
52185;BME280;38160;52.876;18.778;2023-02-18T07:59:51;100090.23;;;5.41;82.77
52185;BME280;38160;52.876;18.778;2023-02-18T08:02:25;100098.84;;;5.42;82.84
52185;BME280;38160;52.876;18.778;2023-02-18T08:04:58;100104.27;;;5.42;83.01
52185;BME280;38160;52.876;18.778;2023-02-18T08:07:32;100107.96;;;5.44;82.74
52185;BME280;38160;52.876;18.778;2023-02-18T08:10:07;100106.76;;;5.47;82.87
52185;BME280;38160;52.876;18.778;2023-02-18T08:12:42;100107.19;;;5.52;83.00
52185;BME280;38160;52.876;18.778;2023-02-18T08:15:16;100105.19;;;5.54;82.55
52185;BME280;38160;52.876;18.778;2023-02-18T08:17:50;100107.58;;;5.58;82.79
52185;BME280;38160;52.876;18.778;2023-02-18T08:20:24;100112.91;;;5.61;82.65
52185;BME280;38160;52.876;18.778;2023-02-18T08:22:58;100115.17;;;5.64;82.42
52185;BME280;38160;52.876;18.778;2023-02-18T08:25:35;100112.30;;;5.70;82.36
52185;BME280;38160;52.876;18.778;2023-02-18T08:28:08;100115.54;;;5.75;82.60
52185;BME280;38160;52.876;18.778;2023-02-18T08:30:44;100117.75;;;5.80;82.26
52185;BME280;38160;52.876;18.778;2023-02-18T08:33:19;100121.41;;;5.83;82.28
52185;BME280;38160;52.876;18.778;2023-02-18T08:36:21;100120.64;;;5.85;82.07
52185;BME280;38160;52.876;18.778;2023-02-18T08:39:03;100117.04;;;5.89;82.11
52185;BME280;38160;52.876;18.778;2023-02-18T08:41:37;100119.89;;;5.97;82.34
52185;BME280;38160;52.876;18.778;2023-02-18T08:44:10;100123.71;;;6.06;82.12
52185;BME280;38160;52.876;18.778;2023-02-18T08:46:44;100128.19;;;6.15;82.11
52185;BME280;38160;52.876;18.778;2023-02-18T08:49:19;100125.95;;;6.21;81.85
52185;BME280;38160;52.876;18.778;2023-02-18T08:51:55;100132.88;;;6.27;81.62
52185;BME280;38160;52.876;18.778;2023-02-18T08:54:29;100130.20;;;6.29;81.73
52185;BME280;38160;52.876;18.778;2023-02-18T08:57:03;100131.69;;;6.32;81.52
52185;BME280;38160;52.876;18.778;2023-02-18T08:59:37;100129.23;;;6.35;81.44
52185;BME280;38160;52.876;18.778;2023-02-18T09:02:12;100129.31;;;6.38;81.25
52185;BME280;38160;52.876;18.778;2023-02-18T09:04:47;100131.07;;;6.40;81.12
52185;BME280;38160;52.876;18.778;2023-02-18T09:07:24;100139.33;;;6.44;81.27
52185;BME280;38160;52.876;18.778;2023-02-18T09:09:59;100133.55;;;6.43;81.14
52185;BME280;38160;52.876;18.778;2023-02-18T09:12:33;100138.98;;;6.41;80.93
52185;BME280;38160;52.876;18.778;2023-02-18T09:15:09;100140.82;;;6.43;81.03
52185;BME280;38160;52.876;18.778;2023-02-18T09:17:42;100141.03;;;6.46;81.17
52185;BME280;38160;52.876;18.778;2023-02-18T09:20:16;100142.69;;;6.48;81.17
52185;BME280;38160;52.876;18.778;2023-02-18T09:22:49;100145.44;;;6.45;80.64
52185;BME280;38160;52.876;18.778;2023-02-18T09:25:23;100145.15;;;6.46;81.01
52185;BME280;38160;52.876;18.778;2023-02-18T09:27:57;100152.25;;;6.47;80.42
52185;BME280;38160;52.876;18.778;2023-02-18T09:30:30;100150.96;;;6.47;80.92
52185;BME280;38160;52.876;18.778;2023-02-18T09:33:04;100146.69;;;6.49;80.31
52185;BME280;38160;52.876;18.778;2023-02-18T09:35:40;100150.94;;;6.49;80.69
52185;BME280;38160;52.876;18.778;2023-02-18T09:38:15;100153.00;;;6.54;80.61
52185;BME280;38160;52.876;18.778;2023-02-18T09:40:51;100153.13;;;6.54;80.51
52185;BME280;38160;52.876;18.778;2023-02-18T09:43:29;100161.98;;;6.53;80.29
52185;BME280;38160;52.876;18.778;2023-02-18T09:46:11;100161.33;;;6.49;80.37
52185;BME280;38160;52.876;18.778;2023-02-18T09:48:49;100171.70;;;6.47;79.99
52185;BME280;38160;52.876;18.778;2023-02-18T09:51:24;100172.50;;;6.45;80.29
52185;BME280;38160;52.876;18.778;2023-02-18T09:53:57;100172.59;;;6.41;80.33
52185;BME280;38160;52.876;18.778;2023-02-18T09:56:32;100177.19;;;6.38;80.07
52185;BME280;38160;52.876;18.778;2023-02-18T09:59:13;100172.20;;;6.36;79.99
52185;BME280;38160;52.876;18.778;2023-02-18T10:01:50;100177.66;;;6.39;80.11
52185;BME280;38160;52.876;18.778;2023-02-18T10:04:28;100181.16;;;6.43;80.20
52185;BME280;38160;52.876;18.778;2023-02-18T10:07:04;100169.02;;;6.51;80.00
52185;BME280;38160;52.876;18.778;2023-02-18T10:09:38;100172.40;;;6.56;80.20
52185;BME280;38160;52.876;18.778;2023-02-18T10:12:15;100170.66;;;6.59;80.18
52185;BME280;38160;52.876;18.778;2023-02-18T10:14:52;100167.03;;;6.64;80.28
52185;BME280;38160;52.876;18.778;2023-02-18T10:17:31;100168.77;;;6.68;80.22
52185;BME280;38160;52.876;18.778;2023-02-18T10:20:09;100170.95;;;6.69;80.15
52185;BME280;38160;52.876;18.778;2023-02-18T10:22:49;100167.87;;;6.68;79.99
52185;BME280;38160;52.876;18.778;2023-02-18T10:25:23;100170.61;;;6.67;79.91
52185;BME280;38160;52.876;18.778;2023-02-18T10:27:58;100169.38;;;6.70;80.09
52185;BME280;38160;52.876;18.778;2023-02-18T10:30:39;100164.54;;;6.78;80.18
52185;BME280;38160;52.876;18.778;2023-02-18T10:33:31;100170.69;;;6.83;80.18
52185;BME280;38160;52.876;18.778;2023-02-18T10:36:14;100167.48;;;6.87;80.30
52185;BME280;38160;52.876;18.778;2023-02-18T10:38:55;100169.96;;;6.90;80.12
52185;BME280;38160;52.876;18.778;2023-02-18T10:41:40;100161.77;;;6.90;80.38
52185;BME280;38160;52.876;18.778;2023-02-18T10:44:26;100152.10;;;6.95;80.09
52185;BME280;38160;52.876;18.778;2023-02-18T10:47:13;100148.64;;;6.99;80.06
52185;BME280;38160;52.876;18.778;2023-02-18T10:49:56;100154.40;;;7.05;79.90
52185;BME280;38160;52.876;18.778;2023-02-18T10:52:34;100159.83;;;7.08;79.96
52185;BME280;38160;52.876;18.778;2023-02-18T10:55:12;100158.52;;;7.06;79.76
52185;BME280;38160;52.876;18.778;2023-02-18T10:57:50;100151.85;;;7.05;79.72
52185;BME280;38160;52.876;18.778;2023-02-18T11:00:26;100148.62;;;7.00;79.59
52185;BME280;38160;52.876;18.778;2023-02-18T11:03:15;100142.31;;;6.98;80.01
52185;BME280;38160;52.876;18.778;2023-02-18T11:05:51;100135.91;;;7.03;79.89
52185;BME280;38160;52.876;18.778;2023-02-18T11:08:27;100129.24;;;7.08;79.51
52185;BME280;38160;52.876;18.778;2023-02-18T11:11:10;100123.86;;;7.13;79.72
52185;BME280;38160;52.876;18.778;2023-02-18T11:13:52;100119.13;;;7.17;79.47
52185;BME280;38160;52.876;18.778;2023-02-18T11:16:37;100119.29;;;7.21;79.71
52185;BME280;38160;52.876;18.778;2023-02-18T11:19:31;100114.95;;;7.29;79.57
52185;BME280;38160;52.876;18.778;2023-02-18T11:22:14;100106.04;;;7.34;79.49
52185;BME280;38160;52.876;18.778;2023-02-18T11:24:55;100093.86;;;7.37;79.25
52185;BME280;38160;52.876;18.778;2023-02-18T11:27:33;100085.48;;;7.40;78.95
52185;BME280;38160;52.876;18.778;2023-02-18T11:30:20;100082.36;;;7.39;78.54
52185;BME280;38160;52.876;18.778;2023-02-18T11:32:59;100084.98;;;7.35;78.01
52185;BME280;38160;52.876;18.778;2023-02-18T11:35:37;100086.65;;;7.34;78.46
52185;BME280;38160;52.876;18.778;2023-02-18T11:38:20;100084.08;;;7.40;78.94
52185;BME280;38160;52.876;18.778;2023-02-18T11:40:56;100090.60;;;7.48;78.76
52185;BME280;38160;52.876;18.778;2023-02-18T11:43:34;100093.52;;;7.49;78.74
52185;BME280;38160;52.876;18.778;2023-02-18T11:46:13;100098.45;;;7.53;78.72
52185;BME280;38160;52.876;18.778;2023-02-18T11:48:47;100087.52;;;7.59;78.96
52185;BME280;38160;52.876;18.778;2023-02-18T11:51:24;100076.77;;;7.62;78.86
52185;BME280;38160;52.876;18.778;2023-02-18T11:54:05;100077.96;;;7.61;78.30
52185;BME280;38160;52.876;18.778;2023-02-18T11:56:39;100064.50;;;7.56;78.05
52185;BME280;38160;52.876;18.778;2023-02-18T11:59:13;100056.63;;;7.56;78.43
52185;BME280;38160;52.876;18.778;2023-02-18T12:01:50;100051.71;;;7.55;78.49
52185;BME280;38160;52.876;18.778;2023-02-18T12:04:29;100046.42;;;7.58;78.41
52185;BME280;38160;52.876;18.778;2023-02-18T12:07:14;100048.95;;;7.54;78.17
52185;BME280;38160;52.876;18.778;2023-02-18T12:09:51;100046.48;;;7.51;78.26
52185;BME280;38160;52.876;18.778;2023-02-18T12:12:29;100046.13;;;7.49;78.47
52185;BME280;38160;52.876;18.778;2023-02-18T12:15:05;100047.20;;;7.47;78.60
52185;BME280;38160;52.876;18.778;2023-02-18T12:17:56;100047.34;;;7.42;78.61
52185;BME280;38160;52.876;18.778;2023-02-18T12:20:55;100043.58;;;7.34;78.71
52185;BME280;38160;52.876;18.778;2023-02-18T12:23:39;100043.45;;;7.28;78.71
52185;BME280;38160;52.876;18.778;2023-02-18T12:26:23;100042.60;;;7.24;79.27
52185;BME280;38160;52.876;18.778;2023-02-18T12:29:26;100042.14;;;7.21;79.01
52185;BME280;38160;52.876;18.778;2023-02-18T12:32:20;100041.27;;;7.16;79.01
52185;BME280;38160;52.876;18.778;2023-02-18T12:35:16;100046.87;;;7.08;79.07
52185;BME280;38160;52.876;18.778;2023-02-18T12:38:03;100050.39;;;7.07;79.26
52185;BME280;38160;52.876;18.778;2023-02-18T12:40:51;100053.24;;;7.04;79.09
52185;BME280;38160;52.876;18.778;2023-02-18T12:43:42;100046.50;;;6.98;79.19
52185;BME280;38160;52.876;18.778;2023-02-18T12:46:29;100041.00;;;6.89;79.40
52185;BME280;38160;52.876;18.778;2023-02-18T12:49:19;100036.92;;;6.79;79.13
52185;BME280;38160;52.876;18.778;2023-02-18T12:52:03;100036.23;;;6.72;79.33
52185;BME280;38160;52.876;18.778;2023-02-18T12:58:02;100018.30;;;6.60;79.44
52185;BME280;38160;52.876;18.778;2023-02-18T13:00:47;100014.84;;;6.56;79.38
52185;BME280;38160;52.876;18.778;2023-02-18T13:03:56;100015.73;;;6.52;79.70
52185;BME280;38160;52.876;18.778;2023-02-18T13:09:58;100018.13;;;6.42;79.54
52185;BME280;38160;52.876;18.778;2023-02-18T13:12:40;100017.34;;;6.37;79.64
52185;BME280;38160;52.876;18.778;2023-02-18T13:15:39;100007.98;;;6.33;79.72
52185;BME280;38160;52.876;18.778;2023-02-18T13:21:54;99993.15;;;6.27;79.85
52185;BME280;38160;52.876;18.778;2023-02-18T13:25:55;99992.35;;;6.25;79.61
52185;BME280;38160;52.876;18.778;2023-02-18T13:29:29;99983.62;;;6.21;79.59
52185;BME280;38160;52.876;18.778;2023-02-18T13:33:07;99976.81;;;6.17;79.65
52185;BME280;38160;52.876;18.778;2023-02-18T13:36:32;99968.03;;;6.14;79.52
52185;BME280;38160;52.876;18.778;2023-02-18T13:43:58;99956.55;;;6.11;79.68
52185;BME280;38160;52.876;18.778;2023-02-18T13:46:48;99953.97;;;6.13;79.60
52185;BME280;38160;52.876;18.778;2023-02-18T13:49:24;99947.17;;;6.16;79.79
52185;BME280;38160;52.876;18.778;2023-02-18T13:52:05;99950.70;;;6.18;79.68
52185;BME280;38160;52.876;18.778;2023-02-18T13:55:05;99949.02;;;6.20;79.78
52185;BME280;38160;52.876;18.778;2023-02-18T13:57:40;99944.48;;;6.21;79.96
52185;BME280;38160;52.876;18.778;2023-02-18T14:00:21;99939.84;;;6.21;80.16
52185;BME280;38160;52.876;18.778;2023-02-18T14:04:01;99943.50;;;6.26;80.49
52185;BME280;38160;52.876;18.778;2023-02-18T14:06:37;99940.56;;;6.17;81.15
52185;BME280;38160;52.876;18.778;2023-02-18T14:09:35;99936.00;;;6.15;81.44
52185;BME280;38160;52.876;18.778;2023-02-18T14:18:57;99936.93;;;6.00;82.00
52185;BME280;38160;52.876;18.778;2023-02-18T14:21:41;99939.80;;;5.94;81.71
52185;BME280;38160;52.876;18.778;2023-02-18T14:24:46;99941.48;;;5.90;81.63
52185;BME280;38160;52.876;18.778;2023-02-18T14:27:24;99936.78;;;5.83;81.65
52185;BME280;38160;52.876;18.778;2023-02-18T14:30:14;99930.52;;;5.76;81.55
52185;BME280;38160;52.876;18.778;2023-02-18T14:32:57;99933.59;;;5.67;81.80
52185;BME280;38160;52.876;18.778;2023-02-18T14:35:36;99933.81;;;5.57;82.00
52185;BME280;38160;52.876;18.778;2023-02-18T14:38:30;99943.86;;;5.47;82.89
52185;BME280;38160;52.876;18.778;2023-02-18T14:41:30;99943.65;;;5.38;82.64
52185;BME280;38160;52.876;18.778;2023-02-18T14:44:29;99941.63;;;5.26;83.24
52185;BME280;38160;52.876;18.778;2023-02-18T14:47:37;99945.61;;;5.17;83.30
52185;BME280;38160;52.876;18.778;2023-02-18T14:50:23;99949.21;;;5.10;83.34
52185;BME280;38160;52.876;18.778;2023-02-18T14:53:02;99951.14;;;5.04;83.65
52185;BME280;38160;52.876;18.778;2023-02-18T14:55:42;99954.13;;;4.97;83.69
52185;BME280;38160;52.876;18.778;2023-02-18T14:58:28;99953.98;;;4.84;84.43
52185;BME280;38160;52.876;18.778;2023-02-18T15:01:19;99955.59;;;4.72;84.60
52185;BME280;38160;52.876;18.778;2023-02-18T15:04:14;99962.31;;;4.61;84.79
52185;BME280;38160;52.876;18.778;2023-02-18T15:07:00;99952.36;;;4.53;84.75
52185;BME280;38160;52.876;18.778;2023-02-18T15:09:45;99957.08;;;4.45;85.99
52185;BME280;38160;52.876;18.778;2023-02-18T15:12:24;99957.80;;;4.39;86.30
52185;BME280;38160;52.876;18.778;2023-02-18T15:15:03;99959.38;;;4.33;86.20
52185;BME280;38160;52.876;18.778;2023-02-18T15:17:45;99962.08;;;4.23;86.12
52185;BME280;38160;52.876;18.778;2023-02-18T15:20:23;99961.04;;;4.11;86.67
52185;BME280;38160;52.876;18.778;2023-02-18T15:22:59;99966.11;;;4.04;86.16
52185;BME280;38160;52.876;18.778;2023-02-18T15:25:36;99962.34;;;3.99;86.19
52185;BME280;38160;52.876;18.778;2023-02-18T15:28:25;99955.64;;;3.92;86.98
52185;BME280;38160;52.876;18.778;2023-02-18T15:31:08;99959.58;;;3.88;87.56
52185;BME280;38160;52.876;18.778;2023-02-18T15:33:47;99962.02;;;3.86;88.50
52185;BME280;38160;52.876;18.778;2023-02-18T15:36:26;99964.48;;;3.84;88.15
52185;BME280;38160;52.876;18.778;2023-02-18T15:39:02;99968.66;;;3.82;88.48
52185;BME280;38160;52.876;18.778;2023-02-18T15:41:39;99965.84;;;3.75;88.27
52185;BME280;38160;52.876;18.778;2023-02-18T15:44:21;99967.71;;;3.72;88.37
52185;BME280;38160;52.876;18.778;2023-02-18T15:47:18;99960.28;;;3.70;88.48
52185;BME280;38160;52.876;18.778;2023-02-18T15:49:57;99961.87;;;3.68;88.62
52185;BME280;38160;52.876;18.778;2023-02-18T15:52:38;99960.17;;;3.67;88.89
52185;BME280;38160;52.876;18.778;2023-02-18T15:55:21;99958.26;;;3.65;89.45
52185;BME280;38160;52.876;18.778;2023-02-18T15:58:03;99951.99;;;3.63;88.95
52185;BME280;38160;52.876;18.778;2023-02-18T16:00:51;99948.67;;;3.59;88.91
52185;BME280;38160;52.876;18.778;2023-02-18T16:03:28;99940.16;;;3.56;89.37
52185;BME280;38160;52.876;18.778;2023-02-18T16:06:35;99934.01;;;3.55;89.93
52185;BME280;38160;52.876;18.778;2023-02-18T16:09:44;99940.09;;;3.53;90.30
52185;BME280;38160;52.876;18.778;2023-02-18T16:12:28;99947.08;;;3.52;90.08
52185;BME280;38160;52.876;18.778;2023-02-18T16:15:17;99945.81;;;3.51;90.00
52185;BME280;38160;52.876;18.778;2023-02-18T16:18:03;99937.23;;;3.49;90.51
52185;BME280;38160;52.876;18.778;2023-02-18T16:20:42;99934.98;;;3.46;90.55
52185;BME280;38160;52.876;18.778;2023-02-18T16:23:33;99933.29;;;3.43;90.57
52185;BME280;38160;52.876;18.778;2023-02-18T16:26:22;99934.95;;;3.40;90.57
52185;BME280;38160;52.876;18.778;2023-02-18T16:29:04;99934.37;;;3.39;91.30
52185;BME280;38160;52.876;18.778;2023-02-18T16:31:46;99936.84;;;3.38;91.04
52185;BME280;38160;52.876;18.778;2023-02-18T16:34:22;99941.42;;;3.38;91.21
52185;BME280;38160;52.876;18.778;2023-02-18T16:36:59;99948.03;;;3.37;91.32
52185;BME280;38160;52.876;18.778;2023-02-18T16:39:53;99942.33;;;3.36;91.80
52185;BME280;38160;52.876;18.778;2023-02-18T16:42:32;99945.24;;;3.35;91.81
52185;BME280;38160;52.876;18.778;2023-02-18T16:45:12;99943.90;;;3.34;91.60
52185;BME280;38160;52.876;18.778;2023-02-18T16:47:49;99941.83;;;3.33;91.63
52185;BME280;38160;52.876;18.778;2023-02-18T16:50:29;99938.29;;;3.33;91.69
52185;BME280;38160;52.876;18.778;2023-02-18T16:53:05;99944.35;;;3.33;92.30
52185;BME280;38160;52.876;18.778;2023-02-18T16:55:41;99945.83;;;3.32;92.20
52185;BME280;38160;52.876;18.778;2023-02-18T16:58:19;99946.36;;;3.30;92.28
52185;BME280;38160;52.876;18.778;2023-02-18T17:00:56;99946.97;;;3.29;92.46
52185;BME280;38160;52.876;18.778;2023-02-18T17:03:32;99954.86;;;3.31;92.69
52185;BME280;38160;52.876;18.778;2023-02-18T17:06:09;99956.16;;;3.30;92.45
52185;BME280;38160;52.876;18.778;2023-02-18T17:08:45;99958.13;;;3.32;92.22
52185;BME280;38160;52.876;18.778;2023-02-18T17:11:29;99953.07;;;3.31;92.82
52185;BME280;38160;52.876;18.778;2023-02-18T17:14:09;99954.48;;;3.31;92.72
52185;BME280;38160;52.876;18.778;2023-02-18T17:24:15;99955.44;;;3.34;93.33
52185;BME280;38160;52.876;18.778;2023-02-18T17:27:55;99949.02;;;3.28;93.11
52185;BME280;38160;52.876;18.778;2023-02-18T17:30:38;99949.05;;;3.28;93.51
52185;BME280;38160;52.876;18.778;2023-02-18T17:34:08;99951.52;;;3.26;93.70
52185;BME280;38160;52.876;18.778;2023-02-18T17:36:48;99958.88;;;3.23;93.81
52185;BME280;38160;52.876;18.778;2023-02-18T17:39:24;99964.30;;;3.20;93.95
52185;BME280;38160;52.876;18.778;2023-02-18T17:42:00;99974.23;;;3.19;93.59
52185;BME280;38160;52.876;18.778;2023-02-18T17:44:36;99978.02;;;3.18;93.53
52185;BME280;38160;52.876;18.778;2023-02-18T17:47:12;99983.41;;;3.16;93.76
52185;BME280;38160;52.876;18.778;2023-02-18T17:49:48;99977.56;;;3.11;93.81
52185;BME280;38160;52.876;18.778;2023-02-18T17:52:37;99977.50;;;3.05;93.30
52185;BME280;38160;52.876;18.778;2023-02-18T17:55:22;99968.30;;;2.95;93.67
52185;BME280;38160;52.876;18.778;2023-02-18T17:58:01;99983.69;;;2.93;93.90
52185;BME280;38160;52.876;18.778;2023-02-18T18:00:43;99991.98;;;2.87;93.68
52185;BME280;38160;52.876;18.778;2023-02-18T18:03:23;99990.95;;;2.83;93.69
52185;BME280;38160;52.876;18.778;2023-02-18T18:13:43;99996.58;;;2.60;94.81
52185;BME280;38160;52.876;18.778;2023-02-18T18:25:27;100020.27;;;2.42;94.66
52185;BME280;38160;52.876;18.778;2023-02-18T18:28:11;100021.67;;;2.56;97.35
52185;BME280;38160;52.876;18.778;2023-02-18T18:31:11;100027.55;;;3.49;100.00
52185;BME280;38160;52.876;18.778;2023-02-18T18:33:53;100030.79;;;4.07;99.92
